createdAt,value
2022-10-14T00:01:21.036Z,4.50
2022-10-14T00:02:53.036Z,4.20
2022-10-14T00:04:25.191Z,3.83
2022-10-14T00:05:57.258Z,4.05
2022-10-14T00:07:29.224Z,4.10
2022-10-14T00:09:06.405Z,3.80
2022-10-14T00:10:39.758Z,4.10
2022-10-14T00:12:11.803Z,4.25
2022-10-14T00:13:47.386Z,4.00
2022-10-14T00:15:19.468Z,4.00
2022-10-14T00:16:54.015Z,3.72
2022-10-14T00:18:26.407Z,3.78
2022-10-14T00:19:58.425Z,3.85
2022-10-14T00:21:30.903Z,3.75
2022-10-14T00:23:03.275Z,3.83
2022-10-14T00:24:35.211Z,4.30
2022-10-14T00:26:07.253Z,3.83
2022-10-14T00:27:39.297Z,3.97
2022-10-14T00:29:19.131Z,4.15
2022-10-14T00:30:58.488Z,4.10
2022-10-14T00:32:31.155Z,3.80
2022-10-14T00:34:03.634Z,3.83
2022-10-14T00:35:35.768Z,3.70
2022-10-14T00:37:07.814Z,3.88
2022-10-14T00:38:39.987Z,4.00
2022-10-14T00:40:12.604Z,3.88
2022-10-14T00:41:45.416Z,3.63
2022-10-14T00:43:17.552Z,3.78
2022-10-14T00:44:49.469Z,4.20
2022-10-14T00:46:21.809Z,4.45
2022-10-14T00:47:54.159Z,3.83
2022-10-14T00:49:41.413Z,3.47
2022-10-14T00:51:13.820Z,4.32
2022-10-14T00:52:45.831Z,4.05
2022-10-14T00:54:19.211Z,4.28
2022-10-14T00:55:51.261Z,3.75
2022-10-14T00:57:23.945Z,4.43
2022-10-14T00:58:56.985Z,4.15
2022-10-14T01:00:29.196Z,4.18
2022-10-14T01:02:01.269Z,4.45
2022-10-14T01:03:33.699Z,3.90
2022-10-14T01:05:07.567Z,3.80
2022-10-14T01:06:54.379Z,4.03
2022-10-14T01:08:54.390Z,4.05
2022-10-14T01:10:50.204Z,4.03
2022-10-14T01:12:47.552Z,3.97
2022-10-14T01:14:27.276Z,3.70
2022-10-14T01:16:18.798Z,4.10
2022-10-14T01:17:57.114Z,4.13
2022-10-14T01:20:06.748Z,3.88
2022-10-14T01:21:49.049Z,3.95
2022-10-14T01:23:51.515Z,4.05
2022-10-14T01:25:35.348Z,3.83
2022-10-14T01:29:04.523Z,4.10
2022-10-14T01:31:06.266Z,4.25
2022-10-14T01:32:46.440Z,4.10
2022-10-14T01:34:25.914Z,4.22
2022-10-14T01:36:06.831Z,4.70
2022-10-14T01:37:45.925Z,4.00
2022-10-14T01:39:25.806Z,4.07
2022-10-14T01:41:26.840Z,3.90
2022-10-14T01:43:00.673Z,4.40
2022-10-14T01:44:33.580Z,4.10
2022-10-14T01:46:06.934Z,4.22
2022-10-14T01:47:39.784Z,4.10
2022-10-14T01:49:14.597Z,4.45
2022-10-14T01:50:48.534Z,4.82
2022-10-14T01:52:27.772Z,5.35
2022-10-14T01:54:05.072Z,4.70
2022-10-14T01:55:39.791Z,5.43
2022-10-14T01:57:16.348Z,4.78
2022-10-14T01:58:49.056Z,4.53
2022-10-14T02:00:21.100Z,4.97
2022-10-14T02:03:25.919Z,5.00
2022-10-14T02:04:57.915Z,4.38
2022-10-14T02:06:38.241Z,4.40
2022-10-14T02:08:13.569Z,4.60
2022-10-14T02:09:46.228Z,4.75
2022-10-14T02:11:19.280Z,4.40
2022-10-14T02:12:57.174Z,4.35
2022-10-14T02:14:47.510Z,4.53
2022-10-14T02:16:39.232Z,5.32
2022-10-14T02:18:24.538Z,5.32
2022-10-14T02:20:07.491Z,5.13
2022-10-14T02:21:48.440Z,5.13
2022-10-14T02:23:24.554Z,4.85
2022-10-14T02:24:59.705Z,4.57
2022-10-14T02:26:32.215Z,4.88
2022-10-14T02:28:05.117Z,4.70
2022-10-14T02:29:37.953Z,4.80
2022-10-14T02:31:14.479Z,4.65
2022-10-14T02:32:47.391Z,4.85
2022-10-14T02:34:21.796Z,4.70
2022-10-14T02:35:54.138Z,4.72
2022-10-14T02:37:26.691Z,5.53
2022-10-14T02:39:00.192Z,4.80
2022-10-14T02:42:13.082Z,4.78
2022-10-14T02:43:46.086Z,4.35
2022-10-14T02:45:18.783Z,4.78
2022-10-14T02:46:50.803Z,4.28
2022-10-14T02:48:22.821Z,4.25
2022-10-14T02:49:55.039Z,4.93
2022-10-14T02:51:27.025Z,5.30
2022-10-14T02:52:59.115Z,4.95
2022-10-14T02:54:31.062Z,4.55
2022-10-14T02:56:02.994Z,4.10
2022-10-14T02:57:34.915Z,4.30
2022-10-14T02:59:07.086Z,4.53
2022-10-14T03:00:39.123Z,4.90
2022-10-14T03:02:11.249Z,4.05
2022-10-14T03:03:43.351Z,4.53
2022-10-14T03:05:15.763Z,4.53
2022-10-14T03:06:47.824Z,4.50
2022-10-14T03:08:19.875Z,4.97
2022-10-14T03:09:51.860Z,4.72
2022-10-14T03:11:23.900Z,4.63
2022-10-14T03:12:55.945Z,4.07
2022-10-14T03:14:27.914Z,5.10
2022-10-14T03:15:59.962Z,4.30
2022-10-14T03:17:32.018Z,5.00
2022-10-14T03:19:04.018Z,4.47
2022-10-14T03:20:36.093Z,4.47
2022-10-14T03:22:08.283Z,4.88
2022-10-14T03:23:40.229Z,5.13
2022-10-14T03:25:12.351Z,4.72
2022-10-14T03:26:44.357Z,4.55
2022-10-14T03:28:16.415Z,4.88
2022-10-14T03:29:48.503Z,4.63
2022-10-14T03:31:20.525Z,4.47
2022-10-14T03:32:52.739Z,4.32
2022-10-14T03:34:24.755Z,5.00
2022-10-14T03:35:56.764Z,4.57
2022-10-14T03:37:28.875Z,4.22
2022-10-14T03:39:00.936Z,4.53
2022-10-14T03:40:32.920Z,5.18
2022-10-14T03:42:05.051Z,4.85
2022-10-14T03:43:37.014Z,4.53
2022-10-14T03:45:09.407Z,5.07
2022-10-14T03:46:41.505Z,5.32
2022-10-14T03:48:13.656Z,4.82
2022-10-14T03:49:45.737Z,5.45
2022-10-14T03:51:17.830Z,4.78
2022-10-14T03:52:53.370Z,4.68
2022-10-14T03:54:27.501Z,4.85
2022-10-14T03:55:59.710Z,4.95
2022-10-14T03:57:31.719Z,5.20
2022-10-14T03:59:04.100Z,4.68
2022-10-14T04:00:36.343Z,4.60
2022-10-14T04:02:08.469Z,5.07
2022-10-14T04:03:41.734Z,4.95
2022-10-14T04:05:13.890Z,5.10
2022-10-14T04:06:45.871Z,4.60
2022-10-14T04:08:17.909Z,4.78
2022-10-14T04:09:50.063Z,4.65
2022-10-14T04:11:22.159Z,4.72
2022-10-14T04:12:54.853Z,4.97
2022-10-14T04:14:27.077Z,4.72
2022-10-14T04:16:07.439Z,4.63
2022-10-14T04:17:39.537Z,4.90
2022-10-14T04:19:11.587Z,4.20
2022-10-14T04:20:43.705Z,4.45
2022-10-14T04:22:15.782Z,4.78
2022-10-14T04:23:48.092Z,4.57
2022-10-14T04:25:20.272Z,4.45
2022-10-14T04:26:52.923Z,4.85
2022-10-14T04:28:25.273Z,4.70
2022-10-14T04:30:03.531Z,4.63
2022-10-14T04:31:35.813Z,4.65
2022-10-14T04:33:07.842Z,4.10
2022-10-14T04:34:39.980Z,4.53
2022-10-14T04:36:12.106Z,4.55
2022-10-14T04:37:44.119Z,4.40
2022-10-14T04:39:16.092Z,4.25
2022-10-14T04:40:48.171Z,4.60
2022-10-14T04:42:20.574Z,4.97
2022-10-14T04:43:52.892Z,4.25
2022-10-14T04:45:26.101Z,4.57
2022-10-14T04:46:58.195Z,4.68
2022-10-14T04:48:30.318Z,4.53
2022-10-14T04:50:02.374Z,4.65
2022-10-14T04:51:34.362Z,5.50
2022-10-14T04:53:13.517Z,5.63
2022-10-14T04:54:45.834Z,4.70
2022-10-14T04:56:18.056Z,5.20
2022-10-14T04:57:50.097Z,4.65
2022-10-14T05:01:08.189Z,4.63
2022-10-14T05:02:40.509Z,4.10
2022-10-14T05:04:12.549Z,5.20
2022-10-14T05:05:44.651Z,4.57
2022-10-14T05:07:16.932Z,5.03
2022-10-14T05:08:49.121Z,4.70
2022-10-14T05:10:21.428Z,4.78
2022-10-14T05:11:53.616Z,4.78
2022-10-14T05:13:25.824Z,5.03
2022-10-14T05:14:58.691Z,5.78
2022-10-14T05:16:30.746Z,5.75
2022-10-14T05:18:02.741Z,6.10
2022-10-14T05:19:34.724Z,5.53
2022-10-14T05:21:07.215Z,5.75
2022-10-14T05:22:39.903Z,5.28
2022-10-14T05:24:11.907Z,5.43
2022-10-14T05:25:43.921Z,5.25
2022-10-14T05:27:15.997Z,5.30
2022-10-14T05:28:48.046Z,5.97
2022-10-14T05:30:20.125Z,5.50
2022-10-14T05:31:52.107Z,5.25
2022-10-14T05:33:24.369Z,5.70
2022-10-14T05:34:56.440Z,5.85
2022-10-14T05:36:28.466Z,5.70
2022-10-14T05:38:04.053Z,6.07
2022-10-14T05:39:36.432Z,6.40
2022-10-14T05:41:08.409Z,7.13
2022-10-14T05:42:40.511Z,7.30
2022-10-14T05:44:12.774Z,6.30
2022-10-14T05:45:44.868Z,6.20
2022-10-14T05:47:17.053Z,5.80
2022-10-14T05:48:49.056Z,6.25
2022-10-14T05:50:21.939Z,6.38
2022-10-14T05:51:54.088Z,5.80
2022-10-14T05:53:26.349Z,5.32
2022-10-14T05:54:58.445Z,5.15
2022-10-14T05:56:30.788Z,6.00
2022-10-14T05:58:02.906Z,5.47
2022-10-14T05:59:35.117Z,5.15
2022-10-14T06:01:09.424Z,5.70
2022-10-14T06:02:41.798Z,5.45
2022-10-14T06:04:19.387Z,5.75
2022-10-14T06:05:51.592Z,6.03
2022-10-14T06:07:23.739Z,6.10
2022-10-14T06:08:56.746Z,6.25
2022-10-14T06:10:28.790Z,5.88
2022-10-14T06:12:01.055Z,5.45
2022-10-14T06:13:33.317Z,5.97
2022-10-14T06:15:05.901Z,5.90
2022-10-14T06:16:38.069Z,6.13
2022-10-14T06:18:13.537Z,6.03
2022-10-14T06:19:46.040Z,5.97
2022-10-14T06:21:18.253Z,6.40
2022-10-14T06:22:50.185Z,5.68
2022-10-14T06:24:22.416Z,5.97
2022-10-14T06:25:54.748Z,6.55
2022-10-14T06:27:31.032Z,6.78
2022-10-14T06:29:03.318Z,6.57
2022-10-14T06:30:35.412Z,6.53
2022-10-14T06:32:09.271Z,5.82
2022-10-14T06:33:43.846Z,6.05
2022-10-14T06:35:16.410Z,5.93
2022-10-14T06:36:51.220Z,6.90
2022-10-14T06:38:23.895Z,6.30
2022-10-14T06:39:56.369Z,6.85
2022-10-14T06:41:28.810Z,6.97
2022-10-14T06:43:01.039Z,6.50
2022-10-14T06:44:33.456Z,6.03
2022-10-14T06:46:06.309Z,7.53
2022-10-14T06:47:38.651Z,6.70
2022-10-14T06:49:11.140Z,6.22
2022-10-14T06:50:43.370Z,6.77
2022-10-14T06:52:15.763Z,6.45
2022-10-14T06:53:48.115Z,6.15
2022-10-14T06:55:20.464Z,7.00
2022-10-14T06:56:52.976Z,6.68
2022-10-14T06:58:25.284Z,6.93
2022-10-14T06:59:57.802Z,6.15
2022-10-14T07:01:30.198Z,6.97
2022-10-14T07:03:02.455Z,6.85
2022-10-14T07:04:37.372Z,6.90
2022-10-14T07:06:10.127Z,6.68
2022-10-14T07:07:42.487Z,6.65
2022-10-14T07:09:14.874Z,6.70
2022-10-14T07:10:50.281Z,6.93
2022-10-14T07:12:23.076Z,6.57
2022-10-14T07:13:56.691Z,7.32
2022-10-14T07:17:08.982Z,7.10
2022-10-14T07:18:41.376Z,6.97
2022-10-14T07:20:14.009Z,6.80
2022-10-14T07:21:47.327Z,6.70
2022-10-14T07:23:19.811Z,7.10
2022-10-14T07:24:52.095Z,6.70
2022-10-14T07:26:24.534Z,5.60
2022-10-14T07:27:57.237Z,6.25
2022-10-14T07:29:29.844Z,6.55
2022-10-14T07:31:08.113Z,7.13
2022-10-14T07:32:40.245Z,6.70
2022-10-14T07:34:12.589Z,7.30
2022-10-14T07:35:44.744Z,6.10
2022-10-14T07:37:16.881Z,6.03
2022-10-14T07:38:49.307Z,6.80
2022-10-14T07:40:21.851Z,6.15
2022-10-14T07:41:55.868Z,5.40
2022-10-14T07:43:28.980Z,5.88
2022-10-14T07:45:01.363Z,6.13
2022-10-14T07:46:35.369Z,6.13
2022-10-14T07:48:07.652Z,5.57
2022-10-14T07:49:39.828Z,5.80
2022-10-14T07:51:11.878Z,5.82
2022-10-14T07:52:44.387Z,5.28
2022-10-14T07:54:22.767Z,5.27
2022-10-14T09:03:47.591Z,5.05
2022-10-14T09:05:24.551Z,4.75
2022-10-14T09:06:57.966Z,5.07
2022-10-14T09:10:14.304Z,4.80
2022-10-14T09:11:51.620Z,4.97
2022-10-14T09:13:52.200Z,4.70
2022-10-14T09:15:35.715Z,4.93
2022-10-14T09:17:20.856Z,4.72
2022-10-14T09:18:56.615Z,5.00
2022-10-14T09:20:30.207Z,4.70
2022-10-14T09:22:02.770Z,4.50
2022-10-14T09:23:35.705Z,5.25
2022-10-14T09:25:18.275Z,4.55
2022-10-14T09:26:59.267Z,4.68
2022-10-14T09:28:40.594Z,4.60
2022-10-14T09:30:17.292Z,4.63
2022-10-14T09:31:50.836Z,4.68
2022-10-14T09:33:24.457Z,4.72
2022-10-14T09:34:58.760Z,4.30
2022-10-14T09:36:31.927Z,4.75
2022-10-14T09:38:06.168Z,4.20
2022-10-14T09:39:41.055Z,3.90
2022-10-14T09:41:15.926Z,3.72
2022-10-14T09:43:10.519Z,4.30
2022-10-14T09:44:42.683Z,4.18
2022-10-14T09:46:17.790Z,4.43
2022-10-14T09:47:57.497Z,4.13
2022-10-14T09:49:40.219Z,4.10
2022-10-14T09:51:27.066Z,4.10
2022-10-14T09:53:10.924Z,3.80
2022-10-14T09:54:44.626Z,4.32
2022-10-14T09:58:04.481Z,4.00
2022-10-14T09:59:57.518Z,4.22
2022-10-14T10:01:41.994Z,4.07
2022-10-14T10:03:30.342Z,3.80
2022-10-14T10:05:13.700Z,4.00
2022-10-14T10:06:55.761Z,3.40
2022-10-14T10:08:27.971Z,4.10
2022-10-14T10:10:19.313Z,3.60
2022-10-14T10:11:51.578Z,3.97
2022-10-14T10:13:46.603Z,5.10
2022-10-14T10:15:21.765Z,4.45
2022-10-14T10:17:18.927Z,4.25
2022-10-14T10:18:52.971Z,3.92
2022-10-14T10:20:39.586Z,4.30
2022-10-14T10:22:37.109Z,4.10
2022-10-14T10:24:19.583Z,4.95
2022-10-14T10:25:52.371Z,3.85
2022-10-14T10:27:24.837Z,3.80
2022-10-14T10:28:58.696Z,4.40
2022-10-14T10:30:33.879Z,3.85
2022-10-14T10:32:19.207Z,4.00
2022-10-14T10:34:16.406Z,3.92
2022-10-14T10:36:02.535Z,4.45
2022-10-14T10:38:00.886Z,3.90
2022-10-14T10:39:54.354Z,4.15
2022-10-14T10:41:54.910Z,3.97
2022-10-14T10:44:04.463Z,3.58
2022-10-14T10:45:38.468Z,3.88
2022-10-14T10:47:21.174Z,3.42
2022-10-14T10:49:02.148Z,3.40
2022-10-14T10:51:08.239Z,3.55
2022-10-14T10:53:16.245Z,3.47
2022-10-14T10:54:59.481Z,3.60
2022-10-14T10:56:40.900Z,3.83
2022-10-14T10:58:19.414Z,3.17
2022-10-14T10:59:59.893Z,3.15
2022-10-14T11:01:56.675Z,2.95
2022-10-14T11:03:29.139Z,3.40
2022-10-14T11:05:18.068Z,3.08
2022-10-14T11:07:28.347Z,3.25
2022-10-14T11:09:24.484Z,3.53
2022-10-14T11:11:57.682Z,3.20
2022-10-14T11:13:33.258Z,3.05
2022-10-14T11:15:23.690Z,2.83
2022-10-14T11:17:26.381Z,2.80
2022-10-14T11:19:10.909Z,2.97
2022-10-14T11:21:04.545Z,2.95
2022-10-14T11:23:05.139Z,2.95
2022-10-14T11:24:40.215Z,2.90
2022-10-14T11:28:33.509Z,2.63
2022-10-14T11:31:53.963Z,2.50
2022-10-14T11:33:47.222Z,2.67
2022-10-14T11:37:21.893Z,2.35
2022-10-14T11:39:12.571Z,2.13
2022-10-14T11:40:50.789Z,2.10
2022-10-14T11:42:33.134Z,1.92
2022-10-14T11:44:33.313Z,1.98
2022-10-14T11:46:21.255Z,1.77
2022-10-14T11:47:54.131Z,1.70
2022-10-14T11:49:30.778Z,1.70
2022-10-14T11:51:10.363Z,1.70
2022-10-14T11:53:02.273Z,2.00
2022-10-14T11:54:49.333Z,1.83
2022-10-14T11:56:32.311Z,1.60
2022-10-14T12:00:15.456Z,1.70
2022-10-14T12:01:49.252Z,1.70
2022-10-14T12:03:46.539Z,1.55
2022-10-14T12:05:45.992Z,1.50
2022-10-14T12:07:47.398Z,1.52
2022-10-14T12:09:39.701Z,1.67
2022-10-14T12:11:21.176Z,1.50
2022-10-14T12:12:55.280Z,1.30
2022-10-14T12:14:50.658Z,1.40
2022-10-14T12:16:24.446Z,1.30
2022-10-14T12:18:00.932Z,1.45
2022-10-14T12:19:33.854Z,1.52
2022-10-14T12:21:30.086Z,1.30
2022-10-14T12:23:04.315Z,1.30
2022-10-14T12:24:42.806Z,1.30
2022-10-14T12:26:20.441Z,1.30
2022-10-14T12:29:35.575Z,1.15
2022-10-14T12:31:34.248Z,1.20
2022-10-14T12:33:12.166Z,1.20
2022-10-14T12:34:45.057Z,1.10
2022-10-14T12:38:11.906Z,1.05
2022-10-14T12:39:44.182Z,1.30
2022-10-14T12:41:39.797Z,1.20
2022-10-14T12:43:21.092Z,0.90
2022-10-14T12:44:56.687Z,1.17
2022-10-14T12:46:28.981Z,1.10
2022-10-14T12:48:21.943Z,0.85
2022-10-14T12:49:56.893Z,0.90
2022-10-14T12:51:29.139Z,0.90
2022-10-14T12:53:08.088Z,1.30
2022-10-14T12:54:47.903Z,0.82
2022-10-14T12:56:38.797Z,1.00
2022-10-14T12:59:50.515Z,0.80
2022-10-14T13:01:25.766Z,0.85
2022-10-14T13:03:01.332Z,1.05
2022-10-14T13:04:34.207Z,1.20
2022-10-14T13:06:40.027Z,1.10
2022-10-14T13:08:21.450Z,0.98
2022-10-14T13:10:01.208Z,1.00
2022-10-14T13:11:33.624Z,1.00
2022-10-14T13:13:40.617Z,1.00
2022-10-14T13:15:48.524Z,1.33
2022-10-14T13:17:30.375Z,0.85
2022-10-14T13:19:03.560Z,1.00
2022-10-14T13:20:35.893Z,0.90
2022-10-14T13:22:33.211Z,1.10
2022-10-14T13:24:45.229Z,1.10
2022-10-14T13:26:29.403Z,0.93
2022-10-14T13:28:02.947Z,1.00
2022-10-14T13:30:06.169Z,0.98
2022-10-14T13:31:55.892Z,0.98
2022-10-14T13:33:48.114Z,0.90
2022-10-14T13:35:33.181Z,1.10
2022-10-14T13:37:53.969Z,0.93
2022-10-14T13:39:26.379Z,0.88
2022-10-14T13:40:59.059Z,1.23
2022-10-14T13:42:36.473Z,1.10
2022-10-14T13:44:11.771Z,1.00
2022-10-14T13:45:52.954Z,0.98
2022-10-14T13:47:25.947Z,0.60
2022-10-14T13:49:04.145Z,1.15
2022-10-14T13:50:38.301Z,1.00
2022-10-14T13:52:18.649Z,1.15
2022-10-14T13:54:24.038Z,1.10
2022-10-14T13:56:00.822Z,0.77
2022-10-14T13:58:00.044Z,0.93
2022-10-14T13:59:43.579Z,0.90
2022-10-14T14:01:19.141Z,1.08
2022-10-14T14:02:55.909Z,1.00
2022-10-14T14:04:35.196Z,0.65
2022-10-14T14:06:16.341Z,0.88
2022-10-14T14:08:34.918Z,0.80
2022-10-14T14:09:41.432Z,0.90
2022-10-14T14:11:25.604Z,0.90
2022-10-14T14:12:59.570Z,0.80
2022-10-14T14:14:37.415Z,0.98
2022-10-14T14:16:21.682Z,0.90
2022-10-14T14:17:54.807Z,0.80
2022-10-14T14:19:33.991Z,0.90
2022-10-14T14:21:07.296Z,1.10
2022-10-14T14:24:25.709Z,0.90
2022-10-14T14:26:18.361Z,0.90
2022-10-14T14:27:56.078Z,1.10
2022-10-14T14:29:31.878Z,0.90
2022-10-14T14:31:04.338Z,0.82
2022-10-14T14:32:36.978Z,1.23
2022-10-14T14:34:17.518Z,1.10
2022-10-14T14:35:56.924Z,1.00
2022-10-14T14:39:27.508Z,1.10
2022-10-14T14:41:13.296Z,1.00
2022-10-14T14:42:47.295Z,1.20
2022-10-14T14:44:30.730Z,1.40
2022-10-14T14:46:03.261Z,1.20
2022-10-14T14:47:35.781Z,1.33
2022-10-14T14:49:08.466Z,1.15
2022-10-14T14:50:44.008Z,1.00
2022-10-14T14:52:17.049Z,1.10
2022-10-14T14:53:53.115Z,1.20
2022-10-14T14:55:41.607Z,0.85
2022-10-14T14:57:20.360Z,1.20
2022-10-14T14:58:58.805Z,1.20
2022-10-14T15:00:31.190Z,1.20
2022-10-14T15:02:10.558Z,1.10
2022-10-14T15:04:13.802Z,1.10
2022-10-14T15:05:51.264Z,1.10
2022-10-14T15:07:25.436Z,1.10
2022-10-14T15:09:07.879Z,1.10
2022-10-14T15:10:48.786Z,1.35
2022-10-14T15:12:42.466Z,1.10
2022-10-14T15:14:47.660Z,1.17
2022-10-14T15:16:43.795Z,1.55
2022-10-14T15:18:30.955Z,2.05
2022-10-14T15:20:12.143Z,2.17
2022-10-14T15:21:47.748Z,2.60
2022-10-14T15:23:40.106Z,2.95
2022-10-14T15:25:18.577Z,2.70
2022-10-14T15:26:51.223Z,3.22
2022-10-14T15:28:33.346Z,2.92
2022-10-14T15:30:32.124Z,3.40
2022-10-14T15:32:15.978Z,3.22
2022-10-14T15:35:22.774Z,3.78
2022-10-14T15:38:27.740Z,4.03
2022-10-14T15:40:12.159Z,3.40
2022-10-14T15:41:45.146Z,3.40
2022-10-14T15:43:20.903Z,3.85
2022-10-14T15:44:53.467Z,3.60
2022-10-14T15:46:44.315Z,3.65
2022-10-14T15:48:20.047Z,3.47
2022-10-14T15:49:52.548Z,3.67
2022-10-14T15:51:28.301Z,3.33
2022-10-14T15:53:00.543Z,3.45
2022-10-14T15:54:33.017Z,3.70
2022-10-14T15:56:05.584Z,3.80
2022-10-14T15:57:38.545Z,3.47
2022-10-14T15:59:11.092Z,3.70
2022-10-14T16:00:43.824Z,3.50
2022-10-14T16:02:34.323Z,3.30
2022-10-14T16:04:19.664Z,3.90
2022-10-14T16:05:52.690Z,3.65
2022-10-14T16:07:26.472Z,3.47
2022-10-14T16:08:59.350Z,3.80
2022-10-14T16:10:33.648Z,4.20
2022-10-14T16:12:11.627Z,3.53
2022-10-14T16:13:45.009Z,3.75
2022-10-14T16:16:53.207Z,3.88
2022-10-14T16:18:26.345Z,3.85
2022-10-14T16:19:58.891Z,3.80
2022-10-14T16:21:31.570Z,3.78
2022-10-14T16:23:06.776Z,3.80
2022-10-14T16:24:39.334Z,3.88
2022-10-14T16:26:13.745Z,3.45
2022-10-14T16:27:46.144Z,4.00
2022-10-14T16:29:19.735Z,3.70
2022-10-14T16:30:52.140Z,4.00
2022-10-14T16:32:24.534Z,4.10
2022-10-14T16:33:56.936Z,3.95
2022-10-14T16:35:29.338Z,4.20
2022-10-14T16:37:07.843Z,3.90
2022-10-14T16:38:40.242Z,4.25
2022-10-14T16:40:19.152Z,4.18
2022-10-14T16:41:51.626Z,3.67
2022-10-14T16:43:24.226Z,4.10
2022-10-14T16:44:57.011Z,3.60
2022-10-14T16:47:07.662Z,4.57
2022-10-14T16:48:40.196Z,4.40
2022-10-14T16:50:12.915Z,3.72
2022-10-14T16:51:45.718Z,4.10
2022-10-14T16:53:36.435Z,4.40
2022-10-14T16:55:09.121Z,4.05
2022-10-14T16:56:56.079Z,4.43
2022-10-14T16:58:29.307Z,4.25
2022-10-14T17:00:01.592Z,4.22
2022-10-14T17:01:34.033Z,4.40
2022-10-14T17:03:06.468Z,4.40
2022-10-14T17:04:39.457Z,4.32
2022-10-14T17:06:11.683Z,4.72
2022-10-14T17:07:44.325Z,4.90
2022-10-14T17:09:17.824Z,4.15
2022-10-14T17:10:50.090Z,4.70
2022-10-14T17:12:24.304Z,5.13
2022-10-14T17:14:11.104Z,4.40
2022-10-14T17:15:43.349Z,5.15
2022-10-14T17:17:15.747Z,4.80
2022-10-14T17:20:40.494Z,4.82
2022-10-14T17:22:12.913Z,4.53
2022-10-14T17:23:45.233Z,5.07
2022-10-14T17:25:18.297Z,4.53
2022-10-14T17:26:50.819Z,4.80
2022-10-14T17:28:23.365Z,4.43
2022-10-14T17:29:55.840Z,4.65
2022-10-14T17:31:29.347Z,5.78
2022-10-14T17:33:01.781Z,5.00
2022-10-14T17:34:34.242Z,4.70
2022-10-14T17:36:08.068Z,4.30
2022-10-14T17:37:41.681Z,4.72
2022-10-14T17:39:18.932Z,4.45
2022-10-14T17:41:10.467Z,4.68
2022-10-14T17:42:43.235Z,5.05
2022-10-14T17:44:15.631Z,5.07
2022-10-14T17:45:47.982Z,4.85
2022-10-14T17:47:20.758Z,4.43
2022-10-14T17:48:58.408Z,5.13
2022-10-14T17:50:31.100Z,4.25
2022-10-14T17:52:04.845Z,4.82
2022-10-14T17:53:37.298Z,4.50
2022-10-14T17:55:09.938Z,4.57
2022-10-14T17:56:43.521Z,4.32
2022-10-14T17:58:15.956Z,5.10
2022-10-14T17:59:48.278Z,4.80
2022-10-14T18:01:31.660Z,4.63
2022-10-14T18:03:10.436Z,4.40
2022-10-14T18:04:42.750Z,4.20
2022-10-14T18:06:17.796Z,4.53
2022-10-14T18:07:50.394Z,4.40
2022-10-14T18:09:25.495Z,4.32
2022-10-14T18:10:57.821Z,4.55
2022-10-14T18:12:30.212Z,4.93
2022-10-14T18:14:04.862Z,4.45
2022-10-14T18:15:37.325Z,4.88
2022-10-14T18:17:13.729Z,4.53
2022-10-14T18:18:47.894Z,4.70
2022-10-14T18:20:20.604Z,4.57
2022-10-14T18:21:53.288Z,4.80
2022-10-14T18:23:25.502Z,4.88
2022-10-14T18:24:57.873Z,4.80
2022-10-14T18:26:30.226Z,4.68
2022-10-14T18:28:02.577Z,4.22
2022-10-14T18:29:34.958Z,4.20
2022-10-14T18:31:18.553Z,4.05
2022-10-14T18:32:50.830Z,4.88
2022-10-14T18:34:25.322Z,4.00
2022-10-14T18:35:58.347Z,4.50
2022-10-14T18:37:30.612Z,3.90
2022-10-14T18:39:06.978Z,3.85
2022-10-14T18:40:39.261Z,4.07
2022-10-14T18:42:11.731Z,4.53
2022-10-14T18:43:44.079Z,4.37
2022-10-14T18:45:16.554Z,4.07
2022-10-14T18:46:49.161Z,4.20
2022-10-14T18:48:22.535Z,3.90
2022-10-14T18:51:29.731Z,4.00
2022-10-14T18:53:02.357Z,4.20
2022-10-14T18:54:35.149Z,3.95
2022-10-14T18:56:10.269Z,3.97
2022-10-14T18:57:42.573Z,3.95
2022-10-14T18:59:25.118Z,3.92
2022-10-14T19:00:57.608Z,3.78
2022-10-14T19:02:32.538Z,3.67
2022-10-14T19:04:06.726Z,4.13
2022-10-14T19:05:38.988Z,3.88
2022-10-14T19:07:11.382Z,3.80
2022-10-14T19:08:43.659Z,3.85
2022-10-14T19:10:16.006Z,4.03
2022-10-14T19:11:51.108Z,3.67
2022-10-14T19:13:23.549Z,3.80
2022-10-14T19:14:55.665Z,3.70
2022-10-14T19:16:29.816Z,3.88
2022-10-14T19:18:03.101Z,4.05
2022-10-14T19:19:35.273Z,3.67
2022-10-14T19:21:10.487Z,4.20
2022-10-14T19:22:45.349Z,3.70
2022-10-14T19:24:17.923Z,3.80
2022-10-14T19:25:50.355Z,3.97
2022-10-14T19:27:23.013Z,3.95
2022-10-14T19:28:57.577Z,3.70
2022-10-14T19:30:29.965Z,3.70
2022-10-14T19:32:02.301Z,4.00
2022-10-14T19:33:42.561Z,3.85
2022-10-14T19:35:15.032Z,3.85
2022-10-14T19:36:47.193Z,3.60
2022-10-14T19:38:19.307Z,4.00
2022-10-14T19:39:51.439Z,3.97
2022-10-14T19:41:24.666Z,3.78
2022-10-14T19:42:56.698Z,3.45
2022-10-14T19:44:28.809Z,3.67
2022-10-14T19:46:02.411Z,3.80
2022-10-14T19:47:34.481Z,4.07
2022-10-14T19:49:07.180Z,3.80
2022-10-14T19:50:42.120Z,4.25
2022-10-14T19:52:14.624Z,4.22
2022-10-14T19:53:46.853Z,4.03
2022-10-14T19:55:19.004Z,4.32
2022-10-14T19:56:53.974Z,4.35
2022-10-14T19:58:26.026Z,4.13
2022-10-14T19:59:58.426Z,4.55
2022-10-14T20:01:31.625Z,4.45
2022-10-14T20:03:04.125Z,4.07
2022-10-14T20:04:36.446Z,4.50
2022-10-14T20:06:09.747Z,9.07
2022-10-14T20:07:41.831Z,11.10
2022-10-14T20:09:16.954Z,9.68
2022-10-14T20:10:48.973Z,8.63
2022-10-14T20:12:21.262Z,10.55
2022-10-14T20:13:53.778Z,8.75
2022-10-14T20:15:25.975Z,9.77
2022-10-14T20:16:58.413Z,8.10
2022-10-14T20:18:33.967Z,8.07
2022-10-14T20:20:06.806Z,6.65
2022-10-14T20:21:39.256Z,6.53
2022-10-14T20:23:11.591Z,12.70
2022-10-14T20:24:44.064Z,8.50
2022-10-14T20:26:18.955Z,8.57
2022-10-14T20:27:51.202Z,9.02
2022-10-14T20:29:23.300Z,7.03
2022-10-14T20:30:56.485Z,16.60
2022-10-14T20:32:28.545Z,16.13
2022-10-14T20:34:00.609Z,14.70
2022-10-14T20:35:33.456Z,13.70
2022-10-14T20:37:05.546Z,9.95
2022-10-14T20:38:39.085Z,12.00
2022-10-14T20:40:12.032Z,47.13
2022-10-14T20:41:44.394Z,13.70
2022-10-14T20:43:16.904Z,16.40
2022-10-14T20:44:49.435Z,14.13
2022-10-14T20:46:22.969Z,23.63
2022-10-14T20:47:55.407Z,21.42
2022-10-14T20:49:27.369Z,17.70
2022-10-14T20:50:59.653Z,15.10
2022-10-14T20:52:31.680Z,15.55
2022-10-14T20:54:06.132Z,15.02
2022-10-14T20:55:40.711Z,12.85
2022-10-14T20:57:12.949Z,7.63
2022-10-14T20:58:46.153Z,8.27
2022-10-14T21:00:18.645Z,8.63
2022-10-14T21:01:50.863Z,8.63
2022-10-14T21:03:22.950Z,10.82
2022-10-14T21:04:54.961Z,11.38
2022-10-14T21:06:27.375Z,10.93
2022-10-14T21:07:59.411Z,10.55
2022-10-14T21:09:31.410Z,10.18
2022-10-14T21:11:14.911Z,9.88
2022-10-14T21:12:48.862Z,9.55
2022-10-14T21:14:21.270Z,9.85
2022-10-14T21:15:53.245Z,8.65
2022-10-14T21:17:25.240Z,7.65
2022-10-14T21:18:59.930Z,8.48
2022-10-14T21:20:35.160Z,8.88
2022-10-14T21:22:09.383Z,8.05
2022-10-14T21:23:41.371Z,6.55
2022-10-14T21:25:13.376Z,5.93
2022-10-14T21:26:50.839Z,5.85
2022-10-14T21:28:23.013Z,6.57
2022-10-14T21:31:28.316Z,7.05
2022-10-14T21:33:02.679Z,6.93
2022-10-14T21:34:34.730Z,6.15
2022-10-14T21:36:09.346Z,6.57
2022-10-14T21:37:41.723Z,5.82
2022-10-14T21:39:15.535Z,5.70
2022-10-14T21:40:47.662Z,6.20
2022-10-14T21:42:19.770Z,6.20
2022-10-14T21:43:51.947Z,5.70
2022-10-14T21:45:24.063Z,6.22
2022-10-14T21:46:56.082Z,5.97
2022-10-14T21:48:28.126Z,5.80
2022-10-14T21:50:00.167Z,6.07
2022-10-14T21:51:33.034Z,6.40
2022-10-14T21:53:05.155Z,6.50
2022-10-14T21:54:37.171Z,5.75
2022-10-14T21:56:10.495Z,6.45
2022-10-14T21:57:42.560Z,6.10
2022-10-14T21:59:14.647Z,5.93
2022-10-14T22:00:46.703Z,5.75
2022-10-14T22:02:19.941Z,5.60
2022-10-14T22:03:59.519Z,5.78
2022-10-14T22:05:35.123Z,6.03
2022-10-14T22:07:07.351Z,5.65
2022-10-14T22:08:41.623Z,6.05
2022-10-14T22:10:32.737Z,5.88
2022-10-14T22:12:05.201Z,5.50
2022-10-14T22:13:37.410Z,5.27
2022-10-14T22:15:09.949Z,5.25
2022-10-14T22:16:41.989Z,5.15
2022-10-14T22:18:14.171Z,5.05
2022-10-14T22:19:46.270Z,5.43
2022-10-14T22:21:23.080Z,5.47
2022-10-14T22:22:55.199Z,6.03
2022-10-14T22:24:28.125Z,5.32
2022-10-14T22:26:02.101Z,4.80
2022-10-14T22:27:34.212Z,5.68
2022-10-14T22:29:16.833Z,5.45
2022-10-14T22:30:48.912Z,5.03
2022-10-14T22:32:20.918Z,5.75
2022-10-14T22:33:52.927Z,5.30
2022-10-14T22:35:25.223Z,5.32
2022-10-14T22:36:57.297Z,5.40
2022-10-14T22:38:29.276Z,5.32
2022-10-14T22:40:01.291Z,5.47
2022-10-14T22:41:35.831Z,5.40
2022-10-14T22:43:08.159Z,4.85
2022-10-14T22:46:28.219Z,4.57
2022-10-14T22:48:00.382Z,5.07
2022-10-14T22:49:32.363Z,4.80
2022-10-14T22:51:12.099Z,5.20
2022-10-14T22:52:44.088Z,5.97
2022-10-14T22:54:16.053Z,5.38
2022-10-14T22:55:52.446Z,6.05
2022-10-14T22:57:24.439Z,5.50
2022-10-14T22:59:01.195Z,5.43
2022-10-14T23:00:34.597Z,5.20
2022-10-14T23:03:38.712Z,5.13
2022-10-14T23:05:10.831Z,5.55
2022-10-14T23:06:45.170Z,5.20
2022-10-14T23:08:18.036Z,5.20
2022-10-14T23:09:50.069Z,5.22
2022-10-14T23:11:23.448Z,5.65
2022-10-14T23:14:27.856Z,5.78